createdAt,value
2022-08-18T00:00:52.195Z,49.15
2022-08-18T00:04:03.281Z,48.80
2022-08-18T00:07:08.067Z,49.05
2022-08-18T00:10:17.894Z,49.16
2022-08-18T00:13:20.645Z,48.86
2022-08-18T00:16:22.480Z,49.13
2022-08-18T00:19:46.638Z,49.04
2022-08-18T00:22:47.326Z,49.08
2022-08-18T00:25:49.962Z,48.76
2022-08-18T00:28:51.548Z,48.99
2022-08-18T00:31:53.364Z,49.00
2022-08-18T00:34:55.212Z,48.67
2022-08-18T00:38:00.261Z,49.07
2022-08-18T00:41:02.068Z,49.14
2022-08-18T00:44:04.638Z,48.68
2022-08-18T00:47:06.433Z,49.07
2022-08-18T00:50:09.562Z,48.73
2022-08-18T00:53:35.529Z,48.86
2022-08-18T00:56:45.339Z,49.17
2022-08-18T01:00:05.385Z,48.94
2022-08-18T01:03:12.809Z,49.29
2022-08-18T01:06:33.367Z,48.89
2022-08-18T01:09:35.580Z,49.34
2022-08-18T01:12:45.611Z,49.07
2022-08-18T01:15:48.125Z,49.16
2022-08-18T01:19:08.327Z,49.26
2022-08-18T01:22:28.823Z,49.44
2022-08-18T01:25:50.861Z,49.49
2022-08-18T01:28:54.122Z,49.13
2022-08-18T01:31:56.374Z,49.39
2022-08-18T01:34:59.275Z,49.41
2022-08-18T01:38:00.805Z,49.12
2022-08-18T01:41:28.656Z,49.16
2022-08-18T01:44:24.133Z,49.33
2022-08-18T01:47:25.746Z,49.53
2022-08-18T01:50:27.400Z,49.52
2022-08-18T01:53:29.199Z,49.37
2022-08-18T01:56:30.861Z,49.23
2022-08-18T01:59:32.486Z,49.56
2022-08-18T02:02:34.277Z,49.37
2022-08-18T02:05:44.305Z,49.77
2022-08-18T02:08:53.548Z,49.57
2022-08-18T02:11:56.285Z,49.48
2022-08-18T02:14:58.010Z,49.73
2022-08-18T02:17:59.568Z,49.48
2022-08-18T02:21:10.353Z,49.54
2022-08-18T02:24:12.162Z,49.65
2022-08-18T02:27:15.520Z,49.86
2022-08-18T02:30:18.724Z,49.67
2022-08-18T02:33:20.379Z,49.68
2022-08-18T02:36:23.975Z,49.88
2022-08-18T02:39:27.884Z,49.52
2022-08-18T02:42:30.393Z,49.74
2022-08-18T02:45:32.833Z,49.70
2022-08-18T02:48:35.206Z,50.04
2022-08-18T02:51:36.828Z,49.79
2022-08-18T02:54:38.776Z,49.95
2022-08-18T02:57:46.698Z,49.85
2022-08-18T03:00:48.640Z,49.86
2022-08-18T03:03:50.594Z,49.95
2022-08-18T03:06:52.373Z,49.92
2022-08-18T03:09:53.917Z,49.87
2022-08-18T03:12:55.509Z,50.02
2022-08-18T03:15:57.752Z,49.96
2022-08-18T03:19:01.571Z,50.03
2022-08-18T03:22:04.343Z,50.20
2022-08-18T03:25:25.980Z,50.18
2022-08-18T03:28:28.721Z,50.10
2022-08-18T03:31:31.489Z,50.39
2022-08-18T03:34:33.124Z,50.35
2022-08-18T03:37:34.713Z,50.38
2022-08-18T03:40:37.202Z,50.34
2022-08-18T03:43:50.708Z,50.41
2022-08-18T03:46:53.119Z,50.43
2022-08-18T03:49:54.673Z,50.39
2022-08-18T03:52:59.480Z,50.53
2022-08-18T03:56:01.331Z,50.78
2022-08-18T03:59:07.842Z,50.62
2022-08-18T04:02:11.453Z,50.74
2022-08-18T04:05:14.590Z,50.72
2022-08-18T04:08:16.701Z,50.58
2022-08-18T04:11:18.254Z,50.55
2022-08-18T04:14:22.215Z,50.95
2022-08-18T04:17:24.873Z,50.84
2022-08-18T04:20:26.660Z,50.76
2022-08-18T04:23:28.308Z,50.88
2022-08-18T04:26:37.045Z,50.78
2022-08-18T04:29:38.776Z,50.90
2022-08-18T04:32:40.438Z,50.80
2022-08-18T04:35:42.086Z,50.91
2022-08-18T04:38:44.696Z,50.95
2022-08-18T04:41:46.306Z,51.00
2022-08-18T04:44:47.877Z,51.27
2022-08-18T04:47:49.512Z,51.15
2022-08-18T04:50:51.069Z,51.37
2022-08-18T04:53:52.957Z,51.16
2022-08-18T04:56:55.145Z,51.24
2022-08-18T04:59:58.215Z,51.30
2022-08-18T05:03:00.345Z,51.14
2022-08-18T05:06:04.767Z,51.28
2022-08-18T05:09:09.009Z,51.27
2022-08-18T05:12:14.207Z,51.57
2022-08-18T05:15:17.720Z,51.57
2022-08-18T05:18:20.309Z,51.58
2022-08-18T05:21:23.753Z,51.57
2022-08-18T05:24:32.193Z,51.71
2022-08-18T05:27:38.244Z,51.62
2022-08-18T05:30:41.289Z,51.73
2022-08-18T05:33:43.832Z,51.55
2022-08-18T05:36:59.217Z,51.70
2022-08-18T05:40:11.384Z,51.50
2022-08-18T05:43:15.294Z,51.89
2022-08-18T05:46:17.497Z,51.75
2022-08-18T05:49:25.960Z,52.00
2022-08-18T05:52:38.510Z,51.53
2022-08-18T05:56:05.180Z,51.89
2022-08-18T05:59:07.725Z,51.71
2022-08-18T06:02:18.328Z,51.95
2022-08-18T06:05:26.889Z,52.03
2022-08-18T06:08:53.253Z,51.75
2022-08-18T06:12:05.276Z,51.87
2022-08-18T06:15:18.137Z,51.90
2022-08-18T06:18:54.290Z,51.67
2022-08-18T06:22:07.763Z,52.05
2022-08-18T06:25:18.731Z,52.00
2022-08-18T06:28:22.125Z,52.11
2022-08-18T06:31:37.158Z,52.11
2022-08-18T06:35:04.605Z,51.72
2022-08-18T06:38:38.787Z,51.83
2022-08-18T06:41:49.072Z,51.90
2022-08-18T06:45:01.116Z,51.78
2022-08-18T06:48:19.093Z,52.21
2022-08-18T06:51:23.139Z,52.26
2022-08-18T06:54:30.024Z,51.76
2022-08-18T06:57:35.446Z,51.78
2022-08-18T07:00:42.339Z,52.29
2022-08-18T07:03:56.593Z,51.85
2022-08-18T07:06:58.374Z,52.20
2022-08-18T07:10:00.538Z,52.18
2022-08-18T07:13:08.506Z,52.31
2022-08-18T07:16:40.563Z,51.96
2022-08-18T07:19:56.684Z,52.23
2022-08-18T07:23:08.066Z,51.85
2022-08-18T07:26:10.171Z,51.88
2022-08-18T07:29:15.974Z,52.25
2022-08-18T07:32:21.998Z,52.12
2022-08-18T07:35:35.564Z,52.30
2022-08-18T07:38:54.002Z,52.39
2022-08-18T07:42:06.588Z,51.96
2022-08-18T07:45:37.291Z,52.03
2022-08-18T07:48:40.018Z,52.42
2022-08-18T07:52:04.998Z,51.91
2022-08-18T07:55:16.838Z,52.06
2022-08-18T07:58:27.404Z,52.40
2022-08-18T08:01:54.894Z,51.90
2022-08-18T08:05:44.390Z,52.15
2022-08-18T08:08:59.137Z,51.90
2022-08-18T08:12:37.863Z,51.91
2022-08-18T08:16:23.886Z,52.10
2022-08-18T08:19:59.410Z,52.31
2022-08-18T08:23:22.082Z,52.23
2022-08-18T08:26:41.174Z,52.11
2022-08-18T08:30:05.525Z,52.18
2022-08-18T08:33:16.032Z,52.03
2022-08-18T08:36:30.480Z,52.41
2022-08-18T08:39:57.878Z,52.23
2022-08-18T08:43:18.244Z,52.14
2022-08-18T08:46:30.083Z,52.13
2022-08-18T08:49:39.231Z,52.02
2022-08-18T08:52:44.802Z,52.20
2022-08-18T08:55:51.186Z,51.93
2022-08-18T08:58:59.233Z,52.19
2022-08-18T09:02:15.950Z,52.12
2022-08-18T09:05:29.115Z,52.23
2022-08-18T09:08:39.287Z,52.30
2022-08-18T09:12:13.380Z,52.07
2022-08-18T09:15:34.139Z,52.12
2022-08-18T09:18:54.458Z,51.93
2022-08-18T09:22:11.973Z,51.92
2022-08-18T09:25:38.352Z,52.14
2022-08-18T09:28:56.551Z,52.13
2022-08-18T09:32:20.298Z,51.87
2022-08-18T09:35:54.644Z,51.94
2022-08-18T09:39:54.903Z,52.05
2022-08-18T09:43:11.353Z,51.81
2022-08-18T09:46:13.688Z,51.75
2022-08-18T09:49:26.657Z,51.62
2022-08-18T09:56:01.306Z,51.83
2022-08-18T09:59:10.766Z,51.80
2022-08-18T10:02:33.848Z,51.61
2022-08-18T10:05:40.105Z,51.84
2022-08-18T10:09:26.758Z,51.63
2022-08-18T10:12:56.614Z,51.70
2022-08-18T10:16:11.021Z,51.62
2022-08-18T10:19:39.843Z,51.62
2022-08-18T10:22:49.188Z,51.25
2022-08-18T10:25:55.244Z,51.15
2022-08-18T10:29:04.108Z,51.26
2022-08-18T10:32:08.381Z,51.19
2022-08-18T10:35:37.721Z,51.07
2022-08-18T10:38:46.122Z,50.86
2022-08-18T10:41:58.599Z,50.96
2022-08-18T10:45:24.591Z,51.00
2022-08-18T10:48:30.450Z,50.80
2022-08-18T10:52:00.594Z,50.87
2022-08-18T10:55:14.574Z,50.95
2022-08-18T10:58:40.691Z,50.49
2022-08-18T11:02:16.240Z,50.36
2022-08-18T11:05:22.361Z,50.71
2022-08-18T11:08:25.018Z,50.46
2022-08-18T11:12:01.791Z,50.24
2022-08-18T11:15:22.788Z,50.65
2022-08-18T11:18:44.023Z,50.21
2022-08-18T11:21:51.127Z,50.50
2022-08-18T11:24:56.309Z,50.51
2022-08-18T11:27:59.678Z,50.26
2022-08-18T11:31:02.682Z,50.36
2022-08-18T11:34:19.683Z,50.11
2022-08-18T11:37:49.279Z,50.15
2022-08-18T11:41:12.084Z,50.44
2022-08-18T11:44:19.997Z,50.07
2022-08-18T11:47:23.640Z,50.16
2022-08-18T11:50:32.030Z,50.51
2022-08-18T11:53:33.654Z,50.46
2022-08-18T11:56:38.479Z,50.28
2022-08-18T11:59:54.593Z,50.37
2022-08-18T12:03:28.410Z,50.15
2022-08-18T12:06:32.305Z,50.24
2022-08-18T12:13:08.547Z,49.95
2022-08-18T12:16:33.325Z,50.10
2022-08-18T12:19:35.028Z,50.29
2022-08-18T12:22:38.997Z,50.00
2022-08-18T12:25:40.631Z,49.98
2022-08-18T12:28:42.268Z,50.00
2022-08-18T12:31:48.245Z,49.76
2022-08-18T12:34:50.942Z,49.78
2022-08-18T12:38:05.050Z,50.00
2022-08-18T12:41:18.613Z,49.82
2022-08-18T12:44:27.322Z,50.14
2022-08-18T12:47:31.240Z,49.99
2022-08-18T12:50:42.618Z,49.78
2022-08-18T12:53:58.388Z,50.06
2022-08-18T12:57:06.691Z,50.10
2022-08-18T13:00:09.595Z,50.02
2022-08-18T13:03:19.372Z,50.00
2022-08-18T13:06:23.029Z,49.98
2022-08-18T13:09:48.141Z,49.61
2022-08-18T13:12:55.694Z,50.07
2022-08-18T13:16:03.314Z,49.64
2022-08-18T13:19:06.109Z,49.88
2022-08-18T13:22:07.830Z,49.93
2022-08-18T13:25:32.199Z,49.98
2022-08-18T13:28:56.808Z,49.86
2022-08-18T13:31:59.611Z,49.81
2022-08-18T13:35:02.518Z,49.67
2022-08-18T13:38:15.847Z,49.76
2022-08-18T13:44:26.977Z,49.58
2022-08-18T13:47:29.366Z,49.55
2022-08-18T13:50:31.804Z,49.58
2022-08-18T13:53:37.534Z,49.53
2022-08-18T13:56:53.482Z,49.68
2022-08-18T13:59:55.094Z,49.78
2022-08-18T14:02:58.841Z,49.76
2022-08-18T14:06:02.890Z,49.30
2022-08-18T14:09:19.335Z,49.42
2022-08-18T14:12:28.194Z,49.65
2022-08-18T14:15:36.365Z,49.50
2022-08-18T14:18:39.104Z,49.79
2022-08-18T14:22:02.567Z,49.48
2022-08-18T14:25:23.237Z,49.54
2022-08-18T14:28:25.593Z,49.67
2022-08-18T14:31:27.381Z,49.32
2022-08-18T14:34:29.747Z,49.39
2022-08-18T14:37:32.024Z,49.29
2022-08-18T14:40:37.245Z,49.00
2022-08-18T14:44:11.323Z,49.38
2022-08-18T14:47:07.333Z,49.29
2022-08-18T14:50:13.384Z,49.17
2022-08-18T14:53:20.622Z,49.28
2022-08-18T14:56:22.227Z,48.98
2022-08-18T14:59:28.438Z,49.23
2022-08-18T15:02:30.563Z,49.13
2022-08-18T15:05:33.929Z,49.22
2022-08-18T15:08:37.369Z,49.13
2022-08-18T15:11:38.995Z,49.31
2022-08-18T15:14:43.385Z,49.32
2022-08-18T15:17:52.601Z,49.42
2022-08-18T15:21:34.798Z,49.44
2022-08-18T15:24:53.271Z,49.49
2022-08-18T15:27:54.843Z,49.43
2022-08-18T15:34:20.592Z,49.50
2022-08-18T15:37:24.301Z,49.03
2022-08-18T15:40:30.847Z,49.31
2022-08-18T15:43:45.912Z,49.50
2022-08-18T15:46:53.313Z,49.39
2022-08-18T15:49:55.235Z,49.32
2022-08-18T15:53:07.993Z,49.54
2022-08-18T15:56:20.984Z,49.35
2022-08-18T15:59:22.830Z,49.47
2022-08-18T16:02:34.838Z,49.35
2022-08-18T16:05:52.692Z,49.36
2022-08-18T16:08:55.125Z,49.37
2022-08-18T16:12:00.235Z,49.29
2022-08-18T16:15:04.141Z,49.25
2022-08-18T16:18:10.663Z,49.26
2022-08-18T16:21:15.723Z,49.21
2022-08-18T16:24:18.403Z,49.23
2022-08-18T16:27:20.505Z,49.28
2022-08-18T16:30:24.481Z,49.36
2022-08-18T16:33:26.772Z,49.29
2022-08-18T16:36:28.469Z,49.16
2022-08-18T16:39:33.728Z,49.29
2022-08-18T16:42:35.858Z,49.22
2022-08-18T16:45:38.400Z,49.40
2022-08-18T16:48:40.645Z,49.35
2022-08-18T16:51:46.568Z,49.32
2022-08-18T16:54:48.495Z,49.49
2022-08-18T16:58:18.125Z,49.45
2022-08-18T17:01:48.590Z,49.59
2022-08-18T17:04:53.994Z,49.45
2022-08-18T17:07:55.556Z,49.24
2022-08-18T17:10:57.908Z,49.41
2022-08-18T17:14:01.746Z,49.51
2022-08-18T17:17:05.735Z,49.49
2022-08-18T17:20:10.994Z,49.57
2022-08-18T17:23:13.289Z,49.58
2022-08-18T17:27:25.713Z,49.67
2022-08-18T17:30:32.264Z,49.53
2022-08-18T17:33:37.350Z,49.79
2022-08-18T17:36:53.831Z,49.56
2022-08-18T17:40:02.296Z,49.68
2022-08-18T17:43:05.717Z,49.34
2022-08-18T17:46:10.364Z,49.52
2022-08-18T17:49:47.241Z,49.57
2022-08-18T17:52:54.323Z,49.54
2022-08-18T17:56:05.415Z,49.82
2022-08-18T17:59:45.838Z,49.57
2022-08-18T18:02:33.924Z,49.43
2022-08-18T18:05:44.286Z,49.53
2022-08-18T18:08:58.170Z,49.70
2022-08-18T18:12:23.403Z,49.62
2022-08-18T18:15:31.618Z,49.77
2022-08-18T18:18:42.847Z,49.93
2022-08-18T18:21:55.284Z,49.64
2022-08-18T18:25:06.626Z,49.35
2022-08-18T18:28:26.193Z,49.78
2022-08-18T18:31:30.350Z,49.42
2022-08-18T18:34:39.555Z,49.63
2022-08-18T18:37:55.404Z,49.59
2022-08-18T18:41:21.989Z,49.84
2022-08-18T18:44:29.717Z,49.61
2022-08-18T18:48:03.690Z,49.41
2022-08-18T18:51:12.846Z,49.61
2022-08-18T18:54:33.011Z,49.57
2022-08-18T18:58:06.978Z,49.63
2022-08-18T19:01:21.261Z,49.59
2022-08-18T19:04:49.489Z,49.51
2022-08-18T19:07:57.483Z,49.46
2022-08-18T19:11:41.259Z,49.90
2022-08-18T19:14:59.569Z,49.72
2022-08-18T19:18:13.342Z,49.55
2022-08-18T19:22:04.168Z,49.53
2022-08-18T19:25:18.469Z,49.73
2022-08-18T19:29:08.981Z,49.88
2022-08-18T19:32:16.406Z,49.54
2022-08-18T19:35:35.357Z,49.62
2022-08-18T19:39:02.434Z,50.00
2022-08-18T19:42:12.867Z,49.69
2022-08-18T19:45:32.428Z,50.04
2022-08-18T19:48:53.680Z,49.82
2022-08-18T19:52:02.918Z,49.93
2022-08-18T19:55:42.188Z,49.63
2022-08-18T19:59:18.284Z,49.99
2022-08-18T20:02:55.740Z,49.68
2022-08-18T20:06:33.465Z,50.06
2022-08-18T20:09:40.714Z,49.75
2022-08-18T20:12:58.130Z,49.86
2022-08-18T20:16:11.360Z,49.67
2022-08-18T20:20:05.242Z,50.02
2022-08-18T20:23:30.359Z,49.70
2022-08-18T20:26:40.666Z,49.77
2022-08-18T20:29:46.217Z,50.04
2022-08-18T20:33:03.292Z,49.77
2022-08-18T20:36:11.949Z,49.98
2022-08-18T20:39:32.754Z,50.04
2022-08-18T20:42:35.275Z,49.81
2022-08-18T20:45:36.956Z,49.78
2022-08-18T20:49:06.159Z,50.12
2022-08-18T20:52:29.555Z,50.18
2022-08-18T20:55:36.277Z,50.10
2022-08-18T20:58:47.766Z,49.78
2022-08-18T21:02:05.799Z,50.18
2022-08-18T21:05:10.548Z,49.82
2022-08-18T21:08:31.028Z,50.22
2022-08-18T21:11:44.885Z,49.83
2022-08-18T21:14:52.073Z,49.81
2022-08-18T21:18:17.396Z,50.12
2022-08-18T21:21:27.162Z,50.21
2022-08-18T21:24:39.120Z,50.14
2022-08-18T21:27:44.210Z,50.01
2022-08-18T21:30:56.305Z,50.18
2022-08-18T21:34:36.319Z,50.00
2022-08-18T21:37:41.562Z,50.07
2022-08-18T21:40:48.393Z,50.48
2022-08-18T21:43:52.410Z,50.04
2022-08-18T21:47:05.773Z,50.12
2022-08-18T21:50:08.519Z,50.26
2022-08-18T21:53:13.254Z,50.13
2022-08-18T21:56:31.681Z,50.21
2022-08-18T21:59:33.361Z,50.23
2022-08-18T22:02:35.096Z,50.39
2022-08-18T22:05:57.798Z,50.37
2022-08-18T22:09:26.936Z,50.40
2022-08-18T22:12:51.560Z,50.23
2022-08-18T22:15:53.440Z,50.43
2022-08-18T22:19:10.004Z,50.51
2022-08-18T22:22:30.348Z,50.48
2022-08-18T22:25:32.414Z,50.45
2022-08-18T22:28:36.797Z,50.55
2022-08-18T22:31:44.352Z,50.49
2022-08-18T22:34:45.908Z,50.72
2022-08-18T22:37:50.691Z,50.78
2022-08-18T22:40:52.708Z,50.93
2022-08-18T22:43:55.464Z,50.70
2022-08-18T22:46:57.274Z,50.80
2022-08-18T22:49:59.880Z,51.10
2022-08-18T22:53:02.950Z,51.08
2022-08-18T22:56:07.203Z,50.82
2022-08-18T22:59:18.409Z,50.84
2022-08-18T23:02:22.322Z,51.29
2022-08-18T23:05:24.777Z,51.04
2022-08-18T23:08:55.241Z,51.00
2022-08-18T23:11:48.253Z,51.11
2022-08-18T23:14:50.239Z,51.08
2022-08-18T23:17:52.686Z,51.24
2022-08-18T23:20:59.842Z,51.31
2022-08-18T23:24:01.467Z,51.28
2022-08-18T23:27:05.612Z,51.29
2022-08-18T23:30:08.598Z,51.62
2022-08-18T23:33:10.755Z,51.23
2022-08-18T23:36:12.484Z,51.52
2022-08-18T23:39:14.518Z,51.40
2022-08-18T23:42:16.528Z,51.54
2022-08-18T23:45:19.492Z,51.59
2022-08-18T23:48:21.206Z,51.50
2022-08-18T23:51:29.433Z,51.44
2022-08-18T23:54:33.693Z,51.72
2022-08-18T23:57:36.161Z,51.66
